sensor_id;sensor_type;location;lat;lon;timestamp;P1;durP1;ratioP1;P2;durP2;ratioP2
51048;SDS011;37084;55.228;36.450;2022-08-16T00:02:30;9.15;;;5.70;;
51048;SDS011;37084;55.228;36.450;2022-08-16T00:05:32;7.82;;;5.30;;
51048;SDS011;37084;55.228;36.450;2022-08-16T00:08:33;8.25;;;4.45;;
51048;SDS011;37084;55.228;36.450;2022-08-16T00:11:35;8.25;;;4.90;;
51048;SDS011;37084;55.228;36.450;2022-08-16T00:14:36;6.45;;;4.72;;
51048;SDS011;37084;55.228;36.450;2022-08-16T00:17:37;8.50;;;4.93;;
51048;SDS011;37084;55.228;36.450;2022-08-16T00:20:39;7.10;;;4.60;;
51048;SDS011;37084;55.228;36.450;2022-08-16T00:23:42;7.72;;;4.70;;
51048;SDS011;37084;55.228;36.450;2022-08-16T00:26:43;6.57;;;4.90;;
51048;SDS011;37084;55.228;36.450;2022-08-16T00:29:44;7.75;;;4.78;;
51048;SDS011;37084;55.228;36.450;2022-08-16T00:32:47;7.57;;;4.82;;
51048;SDS011;37084;55.228;36.450;2022-08-16T00:35:49;6.85;;;4.65;;
51048;SDS011;37084;55.228;36.450;2022-08-16T00:38:50;10.52;;;5.05;;
51048;SDS011;37084;55.228;36.450;2022-08-16T00:41:52;6.65;;;4.70;;
51048;SDS011;37084;55.228;36.450;2022-08-16T00:44:54;10.15;;;4.15;;
51048;SDS011;37084;55.228;36.450;2022-08-16T00:47:57;7.50;;;4.22;;
51048;SDS011;37084;55.228;36.450;2022-08-16T00:50:58;9.98;;;4.65;;
51048;SDS011;37084;55.228;36.450;2022-08-16T00:54:00;8.50;;;4.68;;
51048;SDS011;37084;55.228;36.450;2022-08-16T00:57:02;6.28;;;4.57;;
51048;SDS011;37084;55.228;36.450;2022-08-16T01:00:05;8.18;;;4.53;;
51048;SDS011;37084;55.228;36.450;2022-08-16T01:03:09;6.38;;;4.25;;
51048;SDS011;37084;55.228;36.450;2022-08-16T01:06:12;6.07;;;4.13;;
51048;SDS011;37084;55.228;36.450;2022-08-16T01:09:13;8.02;;;4.50;;
51048;SDS011;37084;55.228;36.450;2022-08-16T01:12:15;8.90;;;4.30;;
51048;SDS011;37084;55.228;36.450;2022-08-16T01:15:16;5.97;;;4.43;;
51048;SDS011;37084;55.228;36.450;2022-08-16T01:18:19;8.13;;;4.43;;
51048;SDS011;37084;55.228;36.450;2022-08-16T01:24:37;6.18;;;4.50;;
51048;SDS011;37084;55.228;36.450;2022-08-16T01:27:42;10.27;;;4.43;;
51048;SDS011;37084;55.228;36.450;2022-08-16T01:30:52;7.60;;;4.45;;
51048;SDS011;37084;55.228;36.450;2022-08-16T01:33:56;7.18;;;4.28;;
51048;SDS011;37084;55.228;36.450;2022-08-16T01:37:00;8.98;;;4.70;;
51048;SDS011;37084;55.228;36.450;2022-08-16T01:40:05;7.88;;;4.03;;
51048;SDS011;37084;55.228;36.450;2022-08-16T01:43:07;6.75;;;4.45;;
51048;SDS011;37084;55.228;36.450;2022-08-16T01:46:54;8.68;;;4.63;;
51048;SDS011;37084;55.228;36.450;2022-08-16T01:49:40;8.23;;;4.63;;
51048;SDS011;37084;55.228;36.450;2022-08-16T01:52:42;7.68;;;4.45;;
51048;SDS011;37084;55.228;36.450;2022-08-16T01:55:59;8.00;;;3.88;;
51048;SDS011;37084;55.228;36.450;2022-08-16T01:59:04;8.13;;;4.38;;
51048;SDS011;37084;55.228;36.450;2022-08-16T02:02:10;8.55;;;4.68;;
51048;SDS011;37084;55.228;36.450;2022-08-16T02:05:11;8.10;;;4.20;;
51048;SDS011;37084;55.228;36.450;2022-08-16T02:08:13;6.68;;;4.22;;
51048;SDS011;37084;55.228;36.450;2022-08-16T02:11:14;8.38;;;4.57;;
51048;SDS011;37084;55.228;36.450;2022-08-16T02:14:17;5.60;;;4.10;;
51048;SDS011;37084;55.228;36.450;2022-08-16T02:17:18;9.02;;;3.75;;
51048;SDS011;37084;55.228;36.450;2022-08-16T02:20:20;7.53;;;4.20;;
51048;SDS011;37084;55.228;36.450;2022-08-16T02:23:22;5.10;;;3.85;;
51048;SDS011;37084;55.228;36.450;2022-08-16T02:26:23;7.03;;;4.05;;
51048;SDS011;37084;55.228;36.450;2022-08-16T02:29:25;7.63;;;4.10;;
51048;SDS011;37084;55.228;36.450;2022-08-16T02:32:27;6.60;;;4.03;;
51048;SDS011;37084;55.228;36.450;2022-08-16T02:35:30;6.90;;;4.22;;
51048;SDS011;37084;55.228;36.450;2022-08-16T02:38:32;7.82;;;4.32;;
51048;SDS011;37084;55.228;36.450;2022-08-16T02:41:34;7.13;;;4.32;;
51048;SDS011;37084;55.228;36.450;2022-08-16T02:44:37;6.60;;;3.78;;
51048;SDS011;37084;55.228;36.450;2022-08-16T02:47:38;7.50;;;4.00;;
51048;SDS011;37084;55.228;36.450;2022-08-16T02:50:40;6.50;;;3.95;;
51048;SDS011;37084;55.228;36.450;2022-08-16T02:53:43;7.72;;;4.00;;
51048;SDS011;37084;55.228;36.450;2022-08-16T02:56:46;7.05;;;3.72;;
51048;SDS011;37084;55.228;36.450;2022-08-16T02:59:49;8.02;;;3.92;;
51048;SDS011;37084;55.228;36.450;2022-08-16T03:02:53;7.65;;;4.25;;
51048;SDS011;37084;55.228;36.450;2022-08-16T03:05:55;7.03;;;3.45;;
51048;SDS011;37084;55.228;36.450;2022-08-16T03:08:58;5.55;;;3.47;;
51048;SDS011;37084;55.228;36.450;2022-08-16T03:11:59;7.15;;;3.60;;
51048;SDS011;37084;55.228;36.450;2022-08-16T03:15:01;5.30;;;3.15;;
51048;SDS011;37084;55.228;36.450;2022-08-16T03:18:04;7.72;;;3.63;;
51048;SDS011;37084;55.228;36.450;2022-08-16T03:21:08;8.05;;;3.45;;
51048;SDS011;37084;55.228;36.450;2022-08-16T03:24:09;11.25;;;6.53;;
51048;SDS011;37084;55.228;36.450;2022-08-16T03:27:11;5.53;;;3.40;;
51048;SDS011;37084;55.228;36.450;2022-08-16T03:30:17;7.15;;;3.40;;
51048;SDS011;37084;55.228;36.450;2022-08-16T03:33:27;7.60;;;3.78;;
51048;SDS011;37084;55.228;36.450;2022-08-16T03:36:30;6.05;;;4.03;;
51048;SDS011;37084;55.228;36.450;2022-08-16T03:39:36;7.82;;;3.63;;
51048;SDS011;37084;55.228;36.450;2022-08-16T03:42:37;6.03;;;3.33;;
51048;SDS011;37084;55.228;36.450;2022-08-16T03:45:39;7.68;;;3.30;;
51048;SDS011;37084;55.228;36.450;2022-08-16T03:48:41;11.93;;;6.30;;
51048;SDS011;37084;55.228;36.450;2022-08-16T03:51:48;5.65;;;3.33;;
51048;SDS011;37084;55.228;36.450;2022-08-16T03:55:02;8.68;;;3.42;;
51048;SDS011;37084;55.228;36.450;2022-08-16T03:58:06;6.03;;;3.50;;
51048;SDS011;37084;55.228;36.450;2022-08-16T04:01:07;6.85;;;3.33;;
51048;SDS011;37084;55.228;36.450;2022-08-16T04:04:10;4.88;;;3.03;;
51048;SDS011;37084;55.228;36.450;2022-08-16T04:07:12;8.38;;;3.75;;
51048;SDS011;37084;55.228;36.450;2022-08-16T04:10:14;5.88;;;3.20;;
51048;SDS011;37084;55.228;36.450;2022-08-16T04:13:16;5.53;;;3.08;;
51048;SDS011;37084;55.228;36.450;2022-08-16T04:16:17;5.78;;;3.30;;
51048;SDS011;37084;55.228;36.450;2022-08-16T04:19:20;6.63;;;3.38;;
51048;SDS011;37084;55.228;36.450;2022-08-16T04:22:27;6.85;;;2.97;;
51048;SDS011;37084;55.228;36.450;2022-08-16T04:25:34;5.10;;;3.05;;
51048;SDS011;37084;55.228;36.450;2022-08-16T04:28:37;8.25;;;3.53;;
51048;SDS011;37084;55.228;36.450;2022-08-16T04:31:39;5.38;;;3.65;;
51048;SDS011;37084;55.228;36.450;2022-08-16T04:34:41;7.07;;;3.42;;
51048;SDS011;37084;55.228;36.450;2022-08-16T04:37:44;5.63;;;3.28;;
51048;SDS011;37084;55.228;36.450;2022-08-16T04:40:54;10.45;;;3.47;;
51048;SDS011;37084;55.228;36.450;2022-08-16T04:43:57;7.10;;;3.35;;
51048;SDS011;37084;55.228;36.450;2022-08-16T04:46:58;7.13;;;3.08;;
51048;SDS011;37084;55.228;36.450;2022-08-16T04:50:00;7.15;;;3.05;;
51048;SDS011;37084;55.228;36.450;2022-08-16T04:53:06;6.72;;;3.17;;
51048;SDS011;37084;55.228;36.450;2022-08-16T04:56:10;5.70;;;2.83;;
51048;SDS011;37084;55.228;36.450;2022-08-16T04:59:11;10.18;;;3.40;;
51048;SDS011;37084;55.228;36.450;2022-08-16T05:02:13;6.68;;;3.28;;
51048;SDS011;37084;55.228;36.450;2022-08-16T05:05:15;7.18;;;3.38;;
51048;SDS011;37084;55.228;36.450;2022-08-16T05:08:16;5.57;;;3.08;;
51048;SDS011;37084;55.228;36.450;2022-08-16T05:11:22;7.93;;;3.28;;
51048;SDS011;37084;55.228;36.450;2022-08-16T05:14:25;6.03;;;3.72;;
51048;SDS011;37084;55.228;36.450;2022-08-16T05:17:26;8.27;;;3.53;;
51048;SDS011;37084;55.228;36.450;2022-08-16T05:20:31;5.00;;;3.45;;
51048;SDS011;37084;55.228;36.450;2022-08-16T05:23:34;8.15;;;3.35;;
51048;SDS011;37084;55.228;36.450;2022-08-16T05:26:36;6.90;;;3.33;;
51048;SDS011;37084;55.228;36.450;2022-08-16T05:29:38;5.90;;;3.30;;
51048;SDS011;37084;55.228;36.450;2022-08-16T05:32:45;7.95;;;3.08;;
51048;SDS011;37084;55.228;36.450;2022-08-16T05:35:48;6.05;;;2.90;;
51048;SDS011;37084;55.228;36.450;2022-08-16T05:38:53;7.25;;;3.08;;
51048;SDS011;37084;55.228;36.450;2022-08-16T05:41:55;4.22;;;2.75;;
51048;SDS011;37084;55.228;36.450;2022-08-16T05:44:57;4.88;;;3.50;;
51048;SDS011;37084;55.228;36.450;2022-08-16T05:48:04;4.15;;;2.70;;
51048;SDS011;37084;55.228;36.450;2022-08-16T05:51:22;8.13;;;3.22;;
51048;SDS011;37084;55.228;36.450;2022-08-16T05:54:25;6.57;;;3.80;;
51048;SDS011;37084;55.228;36.450;2022-08-16T05:57:31;8.95;;;3.92;;
51048;SDS011;37084;55.228;36.450;2022-08-16T06:00:34;6.53;;;2.72;;
51048;SDS011;37084;55.228;36.450;2022-08-16T06:03:36;7.82;;;3.10;;
51048;SDS011;37084;55.228;36.450;2022-08-16T06:06:57;4.32;;;2.60;;
51048;SDS011;37084;55.228;36.450;2022-08-16T06:10:04;5.40;;;2.97;;
51048;SDS011;37084;55.228;36.450;2022-08-16T06:13:08;5.40;;;2.95;;
51048;SDS011;37084;55.228;36.450;2022-08-16T06:16:11;8.57;;;3.30;;
51048;SDS011;37084;55.228;36.450;2022-08-16T06:19:14;8.20;;;3.00;;
51048;SDS011;37084;55.228;36.450;2022-08-16T06:22:30;6.82;;;2.63;;
51048;SDS011;37084;55.228;36.450;2022-08-16T06:25:32;4.65;;;2.90;;
51048;SDS011;37084;55.228;36.450;2022-08-16T06:28:34;5.32;;;2.60;;
51048;SDS011;37084;55.228;36.450;2022-08-16T06:31:35;6.70;;;2.67;;
51048;SDS011;37084;55.228;36.450;2022-08-16T06:34:38;8.07;;;2.72;;
51048;SDS011;37084;55.228;36.450;2022-08-16T06:37:43;4.35;;;2.10;;
51048;SDS011;37084;55.228;36.450;2022-08-16T06:40:45;8.98;;;2.95;;
51048;SDS011;37084;55.228;36.450;2022-08-16T06:43:46;6.38;;;2.53;;
51048;SDS011;37084;55.228;36.450;2022-08-16T06:46:55;6.88;;;2.50;;
51048;SDS011;37084;55.228;36.450;2022-08-16T06:49:56;7.32;;;3.03;;
51048;SDS011;37084;55.228;36.450;2022-08-16T06:53:07;5.28;;;2.40;;
51048;SDS011;37084;55.228;36.450;2022-08-16T06:56:10;4.30;;;2.65;;
51048;SDS011;37084;55.228;36.450;2022-08-16T06:59:23;5.00;;;2.63;;
51048;SDS011;37084;55.228;36.450;2022-08-16T07:02:24;6.68;;;2.88;;
51048;SDS011;37084;55.228;36.450;2022-08-16T07:05:25;6.65;;;2.53;;
51048;SDS011;37084;55.228;36.450;2022-08-16T07:08:40;5.68;;;2.38;;
51048;SDS011;37084;55.228;36.450;2022-08-16T07:11:43;5.38;;;2.95;;
51048;SDS011;37084;55.228;36.450;2022-08-16T07:14:47;7.53;;;2.78;;
51048;SDS011;37084;55.228;36.450;2022-08-16T07:17:51;4.95;;;2.15;;
51048;SDS011;37084;55.228;36.450;2022-08-16T07:20:54;4.38;;;2.60;;
51048;SDS011;37084;55.228;36.450;2022-08-16T07:24:02;5.43;;;2.55;;
51048;SDS011;37084;55.228;36.450;2022-08-16T07:27:10;8.52;;;3.00;;
51048;SDS011;37084;55.228;36.450;2022-08-16T07:30:13;6.13;;;2.45;;
51048;SDS011;37084;55.228;36.450;2022-08-16T07:33:14;4.63;;;2.33;;
51048;SDS011;37084;55.228;36.450;2022-08-16T07:36:18;4.13;;;2.40;;
51048;SDS011;37084;55.228;36.450;2022-08-16T07:39:22;3.88;;;2.88;;
51048;SDS011;37084;55.228;36.450;2022-08-16T07:42:27;6.13;;;2.83;;
51048;SDS011;37084;55.228;36.450;2022-08-16T07:45:28;5.05;;;2.25;;
51048;SDS011;37084;55.228;36.450;2022-08-16T07:48:31;7.80;;;2.45;;
51048;SDS011;37084;55.228;36.450;2022-08-16T07:51:34;4.82;;;2.17;;
51048;SDS011;37084;55.228;36.450;2022-08-16T07:54:39;5.47;;;2.25;;
51048;SDS011;37084;55.228;36.450;2022-08-16T07:57:45;4.50;;;2.28;;
51048;SDS011;37084;55.228;36.450;2022-08-16T08:00:46;3.08;;;2.30;;
51048;SDS011;37084;55.228;36.450;2022-08-16T08:03:49;4.82;;;2.47;;
51048;SDS011;37084;55.228;36.450;2022-08-16T08:06:55;4.00;;;2.30;;
51048;SDS011;37084;55.228;36.450;2022-08-16T08:09:57;4.85;;;2.17;;
51048;SDS011;37084;55.228;36.450;2022-08-16T08:12:59;4.40;;;2.50;;
51048;SDS011;37084;55.228;36.450;2022-08-16T08:16:01;3.72;;;2.03;;
51048;SDS011;37084;55.228;36.450;2022-08-16T08:19:03;4.10;;;2.50;;
51048;SDS011;37084;55.228;36.450;2022-08-16T08:22:10;4.25;;;2.22;;
51048;SDS011;37084;55.228;36.450;2022-08-16T08:25:20;4.93;;;2.40;;
51048;SDS011;37084;55.228;36.450;2022-08-16T08:28:23;4.22;;;2.75;;
51048;SDS011;37084;55.228;36.450;2022-08-16T08:31:28;4.68;;;2.42;;
51048;SDS011;37084;55.228;36.450;2022-08-16T08:34:31;3.53;;;2.25;;
51048;SDS011;37084;55.228;36.450;2022-08-16T08:37:33;4.03;;;2.40;;
51048;SDS011;37084;55.228;36.450;2022-08-16T08:40:39;6.07;;;2.85;;
51048;SDS011;37084;55.228;36.450;2022-08-16T08:43:42;7.35;;;2.72;;
51048;SDS011;37084;55.228;36.450;2022-08-16T08:46:46;5.95;;;2.58;;
51048;SDS011;37084;55.228;36.450;2022-08-16T08:49:48;4.70;;;2.53;;
51048;SDS011;37084;55.228;36.450;2022-08-16T08:52:50;3.83;;;2.22;;
51048;SDS011;37084;55.228;36.450;2022-08-16T08:55:53;5.47;;;3.00;;
51048;SDS011;37084;55.228;36.450;2022-08-16T08:58:55;4.68;;;2.30;;
51048;SDS011;37084;55.228;36.450;2022-08-16T09:02:09;4.15;;;2.03;;
51048;SDS011;37084;55.228;36.450;2022-08-16T09:05:20;4.97;;;2.38;;
51048;SDS011;37084;55.228;36.450;2022-08-16T09:08:25;3.20;;;2.22;;
51048;SDS011;37084;55.228;36.450;2022-08-16T09:11:31;10.30;;;6.88;;
51048;SDS011;37084;55.228;36.450;2022-08-16T09:14:40;4.78;;;2.30;;
51048;SDS011;37084;55.228;36.450;2022-08-16T09:17:43;3.33;;;2.05;;
51048;SDS011;37084;55.228;36.450;2022-08-16T09:20:45;3.28;;;2.30;;
51048;SDS011;37084;55.228;36.450;2022-08-16T09:23:46;4.20;;;2.70;;
51048;SDS011;37084;55.228;36.450;2022-08-16T09:26:48;5.03;;;2.35;;
51048;SDS011;37084;55.228;36.450;2022-08-16T09:29:50;3.95;;;2.38;;
51048;SDS011;37084;55.228;36.450;2022-08-16T09:32:51;3.67;;;2.15;;
51048;SDS011;37084;55.228;36.450;2022-08-16T09:35:54;4.10;;;2.30;;
51048;SDS011;37084;55.228;36.450;2022-08-16T09:38:57;6.38;;;2.28;;
51048;SDS011;37084;55.228;36.450;2022-08-16T09:41:58;4.78;;;2.83;;
51048;SDS011;37084;55.228;36.450;2022-08-16T09:44:59;3.88;;;2.25;;
51048;SDS011;37084;55.228;36.450;2022-08-16T09:48:01;4.90;;;2.40;;
51048;SDS011;37084;55.228;36.450;2022-08-16T09:51:05;5.63;;;2.20;;
51048;SDS011;37084;55.228;36.450;2022-08-16T09:54:08;6.05;;;1.90;;
51048;SDS011;37084;55.228;36.450;2022-08-16T09:57:14;6.22;;;2.40;;
51048;SDS011;37084;55.228;36.450;2022-08-16T10:00:15;4.47;;;2.20;;
51048;SDS011;37084;55.228;36.450;2022-08-16T10:03:18;3.15;;;1.98;;
51048;SDS011;37084;55.228;36.450;2022-08-16T10:06:20;2.85;;;1.88;;
51048;SDS011;37084;55.228;36.450;2022-08-16T10:12:29;4.13;;;2.10;;
51048;SDS011;37084;55.228;36.450;2022-08-16T10:15:49;3.80;;;2.33;;
51048;SDS011;37084;55.228;36.450;2022-08-16T10:22:02;5.32;;;3.30;;
51048;SDS011;37084;55.228;36.450;2022-08-16T10:25:06;2.65;;;2.45;;
51048;SDS011;37084;55.228;36.450;2022-08-16T10:28:08;3.97;;;1.95;;
51048;SDS011;37084;55.228;36.450;2022-08-16T10:31:11;5.15;;;2.30;;
51048;SDS011;37084;55.228;36.450;2022-08-16T10:34:13;4.45;;;2.22;;
51048;SDS011;37084;55.228;36.450;2022-08-16T10:37:14;5.13;;;2.33;;
51048;SDS011;37084;55.228;36.450;2022-08-16T10:40:15;5.43;;;2.10;;
51048;SDS011;37084;55.228;36.450;2022-08-16T10:43:17;4.63;;;2.50;;
51048;SDS011;37084;55.228;36.450;2022-08-16T10:46:20;4.22;;;2.80;;
51048;SDS011;37084;55.228;36.450;2022-08-16T10:49:21;7.38;;;3.05;;
51048;SDS011;37084;55.228;36.450;2022-08-16T10:52:24;5.22;;;3.05;;
51048;SDS011;37084;55.228;36.450;2022-08-16T10:55:27;4.82;;;2.70;;
51048;SDS011;37084;55.228;36.450;2022-08-16T10:58:29;4.18;;;2.90;;
51048;SDS011;37084;55.228;36.450;2022-08-16T11:01:33;7.22;;;3.10;;
51048;SDS011;37084;55.228;36.450;2022-08-16T11:04:35;4.82;;;2.92;;
51048;SDS011;37084;55.228;36.450;2022-08-16T11:07:39;5.85;;;2.88;;
51048;SDS011;37084;55.228;36.450;2022-08-16T11:10:44;5.10;;;2.78;;
51048;SDS011;37084;55.228;36.450;2022-08-16T11:13:46;5.45;;;3.22;;
51048;SDS011;37084;55.228;36.450;2022-08-16T11:16:49;5.55;;;2.67;;
51048;SDS011;37084;55.228;36.450;2022-08-16T11:19:50;3.47;;;2.83;;
51048;SDS011;37084;55.228;36.450;2022-08-16T11:22:54;5.75;;;2.63;;
51048;SDS011;37084;55.228;36.450;2022-08-16T11:25:55;6.65;;;2.97;;
51048;SDS011;37084;55.228;36.450;2022-08-16T11:28:57;5.05;;;3.35;;
51048;SDS011;37084;55.228;36.450;2022-08-16T11:35:05;5.93;;;2.97;;
51048;SDS011;37084;55.228;36.450;2022-08-16T11:38:14;5.65;;;3.30;;
51048;SDS011;37084;55.228;36.450;2022-08-16T11:41:17;7.65;;;3.03;;
51048;SDS011;37084;55.228;36.450;2022-08-16T11:44:19;7.35;;;3.25;;
51048;SDS011;37084;55.228;36.450;2022-08-16T11:47:23;5.05;;;2.78;;
51048;SDS011;37084;55.228;36.450;2022-08-16T11:50:27;5.32;;;3.15;;
51048;SDS011;37084;55.228;36.450;2022-08-16T11:53:33;7.68;;;3.10;;
51048;SDS011;37084;55.228;36.450;2022-08-16T11:56:37;4.78;;;2.80;;
51048;SDS011;37084;55.228;36.450;2022-08-16T11:59:40;5.22;;;2.60;;
51048;SDS011;37084;55.228;36.450;2022-08-16T12:02:41;5.18;;;2.70;;
51048;SDS011;37084;55.228;36.450;2022-08-16T12:05:43;4.97;;;3.10;;
51048;SDS011;37084;55.228;36.450;2022-08-16T12:08:46;5.15;;;2.80;;
51048;SDS011;37084;55.228;36.450;2022-08-16T12:11:48;3.35;;;3.03;;
51048;SDS011;37084;55.228;36.450;2022-08-16T12:14:50;5.68;;;2.50;;
51048;SDS011;37084;55.228;36.450;2022-08-16T12:17:52;5.68;;;2.75;;
51048;SDS011;37084;55.228;36.450;2022-08-16T12:20:56;5.15;;;3.17;;
51048;SDS011;37084;55.228;36.450;2022-08-16T12:27:26;4.47;;;3.25;;
51048;SDS011;37084;55.228;36.450;2022-08-16T12:31:16;6.97;;;3.35;;
51048;SDS011;37084;55.228;36.450;2022-08-16T12:34:18;6.45;;;3.05;;
51048;SDS011;37084;55.228;36.450;2022-08-16T12:37:21;3.75;;;2.95;;
51048;SDS011;37084;55.228;36.450;2022-08-16T12:40:30;4.05;;;2.55;;
51048;SDS011;37084;55.228;36.450;2022-08-16T12:43:37;3.28;;;2.97;;
51048;SDS011;37084;55.228;36.450;2022-08-16T12:46:48;5.90;;;2.80;;
51048;SDS011;37084;55.228;36.450;2022-08-16T12:50:09;4.38;;;2.83;;
51048;SDS011;37084;55.228;36.450;2022-08-16T12:53:11;5.47;;;2.83;;
51048;SDS011;37084;55.228;36.450;2022-08-16T12:56:13;3.30;;;2.92;;
51048;SDS011;37084;55.228;36.450;2022-08-16T12:59:18;4.97;;;3.30;;
51048;SDS011;37084;55.228;36.450;2022-08-16T13:02:21;4.28;;;2.55;;
51048;SDS011;37084;55.228;36.450;2022-08-16T13:05:22;3.78;;;2.85;;
51048;SDS011;37084;55.228;36.450;2022-08-16T13:08:23;4.90;;;2.53;;
51048;SDS011;37084;55.228;36.450;2022-08-16T13:11:37;4.72;;;2.67;;
51048;SDS011;37084;55.228;36.450;2022-08-16T13:14:48;4.50;;;3.00;;
51048;SDS011;37084;55.228;36.450;2022-08-16T13:17:50;7.03;;;3.13;;
51048;SDS011;37084;55.228;36.450;2022-08-16T13:20:52;6.75;;;2.30;;
51048;SDS011;37084;55.228;36.450;2022-08-16T13:42:11;6.47;;;3.58;;
51048;SDS011;37084;55.228;36.450;2022-08-16T13:45:14;6.05;;;3.95;;
51048;SDS011;37084;55.228;36.450;2022-08-16T13:51:18;4.28;;;3.50;;
51048;SDS011;37084;55.228;36.450;2022-08-16T13:54:20;3.75;;;3.40;;
51048;SDS011;37084;55.228;36.450;2022-08-16T13:57:21;6.35;;;2.90;;
51048;SDS011;37084;55.228;36.450;2022-08-16T14:00:22;4.50;;;3.92;;
51048;SDS011;37084;55.228;36.450;2022-08-16T14:03:24;4.13;;;3.65;;
51048;SDS011;37084;55.228;36.450;2022-08-16T14:06:26;7.38;;;4.57;;
51048;SDS011;37084;55.228;36.450;2022-08-16T14:09:28;4.47;;;2.90;;
51048;SDS011;37084;55.228;36.450;2022-08-16T14:12:31;6.38;;;3.80;;
51048;SDS011;37084;55.228;36.450;2022-08-16T14:15:34;6.47;;;4.13;;
51048;SDS011;37084;55.228;36.450;2022-08-16T14:18:37;6.70;;;3.60;;
51048;SDS011;37084;55.228;36.450;2022-08-16T14:21:39;4.95;;;4.10;;
51048;SDS011;37084;55.228;36.450;2022-08-16T14:24:45;6.53;;;4.45;;
51048;SDS011;37084;55.228;36.450;2022-08-16T14:27:47;6.47;;;4.40;;
51048;SDS011;37084;55.228;36.450;2022-08-16T14:30:52;6.72;;;4.20;;
51048;SDS011;37084;55.228;36.450;2022-08-16T14:33:53;7.47;;;4.15;;
51048;SDS011;37084;55.228;36.450;2022-08-16T14:36:55;6.03;;;4.38;;
51048;SDS011;37084;55.228;36.450;2022-08-16T14:39:58;5.57;;;4.82;;
51048;SDS011;37084;55.228;36.450;2022-08-16T14:43:01;7.70;;;5.68;;
51048;SDS011;37084;55.228;36.450;2022-08-16T14:46:03;6.85;;;4.78;;
51048;SDS011;37084;55.228;36.450;2022-08-16T14:49:05;6.50;;;4.85;;
51048;SDS011;37084;55.228;36.450;2022-08-16T14:52:09;6.78;;;4.65;;
51048;SDS011;37084;55.228;36.450;2022-08-16T14:55:12;8.13;;;5.03;;
51048;SDS011;37084;55.228;36.450;2022-08-16T14:58:15;6.05;;;5.05;;
51048;SDS011;37084;55.228;36.450;2022-08-16T15:01:18;5.63;;;5.03;;
51048;SDS011;37084;55.228;36.450;2022-08-16T15:04:20;7.70;;;5.45;;
51048;SDS011;37084;55.228;36.450;2022-08-16T15:07:22;7.07;;;4.90;;
51048;SDS011;37084;55.228;36.450;2022-08-16T15:10:23;10.52;;;5.60;;
51048;SDS011;37084;55.228;36.450;2022-08-16T15:13:25;6.50;;;5.20;;
51048;SDS011;37084;55.228;36.450;2022-08-16T15:16:26;7.00;;;5.25;;
51048;SDS011;37084;55.228;36.450;2022-08-16T15:19:28;6.68;;;5.28;;
51048;SDS011;37084;55.228;36.450;2022-08-16T15:22:30;6.13;;;5.38;;
51048;SDS011;37084;55.228;36.450;2022-08-16T15:25:36;7.63;;;4.00;;
51048;SDS011;37084;55.228;36.450;2022-08-16T15:28:40;5.57;;;5.00;;
51048;SDS011;37084;55.228;36.450;2022-08-16T15:31:43;6.13;;;5.20;;
51048;SDS011;37084;55.228;36.450;2022-08-16T15:34:47;6.68;;;5.10;;
51048;SDS011;37084;55.228;36.450;2022-08-16T15:37:49;6.78;;;4.32;;
51048;SDS011;37084;55.228;36.450;2022-08-16T15:40:54;9.52;;;5.05;;
51048;SDS011;37084;55.228;36.450;2022-08-16T15:43:56;6.63;;;5.32;;
51048;SDS011;37084;55.228;36.450;2022-08-16T15:46:59;8.25;;;5.60;;
51048;SDS011;37084;55.228;36.450;2022-08-16T15:50:01;6.32;;;5.20;;
51048;SDS011;37084;55.228;36.450;2022-08-16T15:53:07;7.68;;;5.15;;
51048;SDS011;37084;55.228;36.450;2022-08-16T15:56:12;6.03;;;4.93;;
51048;SDS011;37084;55.228;36.450;2022-08-16T15:59:19;8.23;;;6.53;;
51048;SDS011;37084;55.228;36.450;2022-08-16T16:02:42;9.15;;;5.95;;
51048;SDS011;37084;55.228;36.450;2022-08-16T16:08:47;10.45;;;5.60;;
51048;SDS011;37084;55.228;36.450;2022-08-16T16:11:49;7.00;;;5.25;;
51048;SDS011;37084;55.228;36.450;2022-08-16T16:14:50;6.32;;;4.65;;
51048;SDS011;37084;55.228;36.450;2022-08-16T16:17:53;6.93;;;5.47;;
51048;SDS011;37084;55.228;36.450;2022-08-16T16:20:57;9.85;;;5.82;;
51048;SDS011;37084;55.228;36.450;2022-08-16T16:24:02;6.43;;;5.15;;
51048;SDS011;37084;55.228;36.450;2022-08-16T16:27:04;8.52;;;5.60;;
51048;SDS011;37084;55.228;36.450;2022-08-16T16:30:06;10.40;;;5.45;;
51048;SDS011;37084;55.228;36.450;2022-08-16T16:36:39;7.80;;;5.50;;
51048;SDS011;37084;55.228;36.450;2022-08-16T16:39:41;7.95;;;5.93;;
51048;SDS011;37084;55.228;36.450;2022-08-16T16:42:42;10.90;;;5.70;;
51048;SDS011;37084;55.228;36.450;2022-08-16T16:45:45;8.20;;;5.95;;
51048;SDS011;37084;55.228;36.450;2022-08-16T16:48:46;8.30;;;6.03;;
51048;SDS011;37084;55.228;36.450;2022-08-16T16:51:51;8.07;;;5.43;;
51048;SDS011;37084;55.228;36.450;2022-08-16T16:54:58;9.40;;;6.53;;
51048;SDS011;37084;55.228;36.450;2022-08-16T16:58:00;8.70;;;5.78;;
51048;SDS011;37084;55.228;36.450;2022-08-16T17:01:19;7.70;;;6.55;;
51048;SDS011;37084;55.228;36.450;2022-08-16T17:04:21;10.50;;;6.10;;
51048;SDS011;37084;55.228;36.450;2022-08-16T17:07:23;8.27;;;6.25;;
51048;SDS011;37084;55.228;36.450;2022-08-16T17:10:29;9.27;;;5.97;;
51048;SDS011;37084;55.228;36.450;2022-08-16T17:13:32;8.75;;;5.95;;
51048;SDS011;37084;55.228;36.450;2022-08-16T17:16:38;9.85;;;7.35;;
51048;SDS011;37084;55.228;36.450;2022-08-16T17:19:40;11.63;;;7.32;;
51048;SDS011;37084;55.228;36.450;2022-08-16T17:22:42;11.45;;;7.38;;
51048;SDS011;37084;55.228;36.450;2022-08-16T17:25:44;13.38;;;7.53;;
51048;SDS011;37084;55.228;36.450;2022-08-16T17:28:45;12.73;;;7.75;;
51048;SDS011;37084;55.228;36.450;2022-08-16T17:31:47;13.05;;;7.07;;
51048;SDS011;37084;55.228;36.450;2022-08-16T17:34:53;10.65;;;7.28;;
51048;SDS011;37084;55.228;36.450;2022-08-16T17:37:54;11.38;;;7.55;;
51048;SDS011;37084;55.228;36.450;2022-08-16T17:40:57;12.02;;;8.10;;
51048;SDS011;37084;55.228;36.450;2022-08-16T17:44:02;14.52;;;8.60;;
51048;SDS011;37084;55.228;36.450;2022-08-16T17:47:05;10.25;;;8.27;;
51048;SDS011;37084;55.228;36.450;2022-08-16T17:50:08;11.10;;;8.45;;
51048;SDS011;37084;55.228;36.450;2022-08-16T17:53:12;11.73;;;9.48;;
51048;SDS011;37084;55.228;36.450;2022-08-16T17:56:14;16.85;;;10.52;;
51048;SDS011;37084;55.228;36.450;2022-08-16T17:59:17;16.67;;;12.10;;
51048;SDS011;37084;55.228;36.450;2022-08-16T18:02:22;13.55;;;10.93;;
51048;SDS011;37084;55.228;36.450;2022-08-16T18:05:27;15.07;;;8.95;;
51048;SDS011;37084;55.228;36.450;2022-08-16T18:08:29;14.13;;;9.85;;
51048;SDS011;37084;55.228;36.450;2022-08-16T18:11:35;14.88;;;9.98;;
51048;SDS011;37084;55.228;36.450;2022-08-16T18:14:42;15.73;;;10.40;;
51048;SDS011;37084;55.228;36.450;2022-08-16T18:17:45;14.05;;;11.07;;
51048;SDS011;37084;55.228;36.450;2022-08-16T18:20:48;17.27;;;11.10;;
51048;SDS011;37084;55.228;36.450;2022-08-16T18:24:14;15.35;;;11.32;;
51048;SDS011;37084;55.228;36.450;2022-08-16T18:27:18;15.98;;;11.18;;
51048;SDS011;37084;55.228;36.450;2022-08-16T18:30:22;21.58;;;14.25;;
51048;SDS011;37084;55.228;36.450;2022-08-16T18:33:26;18.05;;;11.82;;
51048;SDS011;37084;55.228;36.450;2022-08-16T18:36:30;16.17;;;11.90;;
51048;SDS011;37084;55.228;36.450;2022-08-16T18:39:33;15.68;;;11.57;;
51048;SDS011;37084;55.228;36.450;2022-08-16T18:42:38;17.25;;;11.98;;
51048;SDS011;37084;55.228;36.450;2022-08-16T18:45:43;15.20;;;11.93;;
51048;SDS011;37084;55.228;36.450;2022-08-16T18:48:49;15.75;;;12.70;;
51048;SDS011;37084;55.228;36.450;2022-08-16T18:51:54;15.45;;;12.57;;
51048;SDS011;37084;55.228;36.450;2022-08-16T18:54:57;18.05;;;13.15;;